sensor_id;sensor_type;location;lat;lon;timestamp;pressure;altitude;pressure_sealevel;temperature;humidity
47883;BME280;37739;50.350;7.578;2023-01-29T00:02:06;101123.72;;;0.59;64.98
47883;BME280;37739;50.350;7.578;2023-01-29T00:04:34;101126.81;;;0.39;65.88
47883;BME280;37739;50.350;7.578;2023-01-29T00:06:59;101130.81;;;0.37;65.96
47883;BME280;37739;50.350;7.578;2023-01-29T00:09:27;101129.91;;;0.36;65.71
47883;BME280;37739;50.350;7.578;2023-01-29T00:11:53;101135.97;;;0.21;66.21
47883;BME280;37739;50.350;7.578;2023-01-29T00:14:18;101130.06;;;0.29;66.70
47883;BME280;37739;50.350;7.578;2023-01-29T00:16:46;101134.19;;;0.29;66.43
47883;BME280;37739;50.350;7.578;2023-01-29T00:19:13;101137.34;;;0.35;66.27
47883;BME280;37739;50.350;7.578;2023-01-29T00:21:41;101123.56;;;0.49;66.51
47883;BME280;37739;50.350;7.578;2023-01-29T00:24:11;101126.84;;;0.56;66.27
47883;BME280;37739;50.350;7.578;2023-01-29T00:26:39;101125.19;;;0.48;66.08
47883;BME280;37739;50.350;7.578;2023-01-29T00:29:06;101120.88;;;0.47;66.30
47883;BME280;37739;50.350;7.578;2023-01-29T00:31:34;101115.09;;;0.57;66.29
47883;BME280;37739;50.350;7.578;2023-01-29T00:33:59;101117.03;;;0.68;65.70
47883;BME280;37739;50.350;7.578;2023-01-29T00:36:27;101117.31;;;0.80;66.40
47883;BME280;37739;50.350;7.578;2023-01-29T00:38:56;101115.69;;;0.81;65.78
47883;BME280;37739;50.350;7.578;2023-01-29T00:41:28;101113.44;;;0.75;66.18
47883;BME280;37739;50.350;7.578;2023-01-29T00:44:12;101111.53;;;0.72;66.04
47883;BME280;37739;50.350;7.578;2023-01-29T00:46:56;101101.88;;;0.68;66.19
47883;BME280;37739;50.350;7.578;2023-01-29T00:49:21;101107.22;;;0.63;66.08
47883;BME280;37739;50.350;7.578;2023-01-29T00:51:47;101099.34;;;0.59;66.40
47883;BME280;37739;50.350;7.578;2023-01-29T00:54:32;101093.25;;;0.57;66.08
47883;BME280;37739;50.350;7.578;2023-01-29T00:57:01;101082.88;;;0.54;65.94
47883;BME280;37739;50.350;7.578;2023-01-29T00:59:31;101079.88;;;0.58;65.73
47883;BME280;37739;50.350;7.578;2023-01-29T01:01:57;101079.88;;;0.58;66.06
47883;BME280;37739;50.350;7.578;2023-01-29T01:04:41;101076.47;;;0.58;66.03
47883;BME280;37739;50.350;7.578;2023-01-29T01:07:08;101071.56;;;0.59;66.28
47883;BME280;37739;50.350;7.578;2023-01-29T01:09:36;101068.16;;;0.59;65.73
47883;BME280;37739;50.350;7.578;2023-01-29T01:12:21;101066.06;;;0.55;65.44
47883;BME280;37739;50.350;7.578;2023-01-29T01:14:47;101062.06;;;0.48;66.10
47883;BME280;37739;50.350;7.578;2023-01-29T01:17:12;101055.38;;;0.49;66.52
47883;BME280;37739;50.350;7.578;2023-01-29T01:19:41;101047.81;;;0.49;66.57
47883;BME280;37739;50.350;7.578;2023-01-29T01:22:09;101044.09;;;0.45;66.76
47883;BME280;37739;50.350;7.578;2023-01-29T01:24:35;101036.22;;;0.42;66.84
47883;BME280;37739;50.350;7.578;2023-01-29T01:27:00;101040.06;;;0.38;66.96
47883;BME280;37739;50.350;7.578;2023-01-29T01:29:28;101040.22;;;0.31;67.14
47883;BME280;37739;50.350;7.578;2023-01-29T01:31:53;101033.38;;;0.30;67.36
47883;BME280;37739;50.350;7.578;2023-01-29T01:34:21;101038.28;;;0.29;67.07
47883;BME280;37739;50.350;7.578;2023-01-29T01:36:47;101042.59;;;0.30;67.06
47883;BME280;37739;50.350;7.578;2023-01-29T01:39:15;101042.28;;;0.27;66.98
47883;BME280;37739;50.350;7.578;2023-01-29T01:41:40;101036.81;;;0.22;67.49
47883;BME280;37739;50.350;7.578;2023-01-29T01:44:05;101036.03;;;0.23;67.26
47883;BME280;37739;50.350;7.578;2023-01-29T01:46:35;101042.31;;;0.18;67.29
47883;BME280;37739;50.350;7.578;2023-01-29T01:49:10;101038.91;;;0.17;67.59
47883;BME280;37739;50.350;7.578;2023-01-29T01:51:45;101043.94;;;0.17;67.73
47883;BME280;37739;50.350;7.578;2023-01-29T01:54:17;101052.97;;;0.15;67.66
47883;BME280;37739;50.350;7.578;2023-01-29T01:56:53;101052.25;;;0.16;67.85
47883;BME280;37739;50.350;7.578;2023-01-29T01:59:31;101048.22;;;0.18;67.50
47883;BME280;37739;50.350;7.578;2023-01-29T02:01:58;101039.94;;;0.19;67.74
47883;BME280;37739;50.350;7.578;2023-01-29T02:04:24;101042.59;;;0.12;67.68
47883;BME280;37739;50.350;7.578;2023-01-29T02:07:12;101040.94;;;0.04;68.05
47883;BME280;37739;50.350;7.578;2023-01-29T02:10:09;101051.63;;;0.02;68.13
47883;BME280;37739;50.350;7.578;2023-01-29T02:12:37;101052.66;;;0.04;68.31
47883;BME280;37739;50.350;7.578;2023-01-29T02:15:05;101061.56;;;0.09;68.25
47883;BME280;37739;50.350;7.578;2023-01-29T02:17:36;101070.34;;;0.12;67.51
47883;BME280;37739;50.350;7.578;2023-01-29T02:20:25;101072.00;;;0.12;67.68
47883;BME280;37739;50.350;7.578;2023-01-29T02:33:10;101063.81;;;0.14;67.73
47883;BME280;37739;50.350;7.578;2023-01-29T02:36:01;101063.81;;;0.14;68.13
47883;BME280;37739;50.350;7.578;2023-01-29T02:38:49;101064.69;;;0.15;68.01
47883;BME280;37739;50.350;7.578;2023-01-29T02:49:15;101050.13;;;0.04;69.06
47883;BME280;37739;50.350;7.578;2023-01-29T02:52:05;101046.44;;;0.00;69.36
47883;BME280;37739;50.350;7.578;2023-01-29T02:54:42;101047.00;;;-0.03;69.40
47883;BME280;37739;50.350;7.578;2023-01-29T02:57:31;101042.56;;;-0.05;69.42
47883;BME280;37739;50.350;7.578;2023-01-29T03:00:06;101046.56;;;-0.07;69.31
47883;BME280;37739;50.350;7.578;2023-01-29T03:03:13;101037.03;;;-0.10;69.73
47883;BME280;37739;50.350;7.578;2023-01-29T03:06:45;101051.13;;;-0.12;69.63
47883;BME280;37739;50.350;7.578;2023-01-29T03:08:58;101048.00;;;-0.18;70.24
47883;BME280;37739;50.350;7.578;2023-01-29T03:11:39;101059.91;;;-0.17;70.20
47883;BME280;37739;50.350;7.578;2023-01-29T03:14:19;101058.53;;;-0.22;70.07
47883;BME280;37739;50.350;7.578;2023-01-29T03:16:51;101052.91;;;-0.20;70.16
47883;BME280;37739;50.350;7.578;2023-01-29T03:19:21;101044.75;;;-0.17;69.97
47883;BME280;37739;50.350;7.578;2023-01-29T03:21:54;101046.53;;;-0.16;70.52
47883;BME280;37739;50.350;7.578;2023-01-29T03:27:39;101057.81;;;-0.21;70.59
47883;BME280;37739;50.350;7.578;2023-01-29T03:30:27;101053.50;;;-0.22;70.43
47883;BME280;37739;50.350;7.578;2023-01-29T03:33:15;101049.94;;;-0.24;70.73
47883;BME280;37739;50.350;7.578;2023-01-29T03:35:49;101049.22;;;-0.23;70.74
47883;BME280;37739;50.350;7.578;2023-01-29T03:38:17;101052.78;;;-0.21;70.67
47883;BME280;37739;50.350;7.578;2023-01-29T03:40:58;101061.34;;;-0.28;70.78
47883;BME280;37739;50.350;7.578;2023-01-29T03:43:39;101061.50;;;-0.26;70.69
47883;BME280;37739;50.350;7.578;2023-01-29T03:46:27;101054.38;;;-0.30;70.88
47883;BME280;37739;50.350;7.578;2023-01-29T03:49:06;101057.44;;;-0.33;71.12
47883;BME280;37739;50.350;7.578;2023-01-29T03:52:20;101060.88;;;-0.32;71.04
47883;BME280;37739;50.350;7.578;2023-01-29T03:54:39;101058.94;;;-0.35;71.47
47883;BME280;37739;50.350;7.578;2023-01-29T04:00:00;101065.88;;;-0.41;71.56
47883;BME280;37739;50.350;7.578;2023-01-29T04:02:30;101076.56;;;-0.44;71.68
47883;BME280;37739;50.350;7.578;2023-01-29T04:05:05;101074.63;;;-0.46;72.06
47883;BME280;37739;50.350;7.578;2023-01-29T04:07:35;101073.44;;;-0.41;72.27
47883;BME280;37739;50.350;7.578;2023-01-29T04:10:15;101086.66;;;-0.44;71.67
47883;BME280;37739;50.350;7.578;2023-01-29T04:12:47;101092.34;;;-0.62;72.36
47883;BME280;37739;50.350;7.578;2023-01-29T04:15:19;101089.94;;;-0.69;73.00
47883;BME280;37739;50.350;7.578;2023-01-29T04:17:51;101089.66;;;-0.64;72.82
47883;BME280;37739;50.350;7.578;2023-01-29T04:20:19;101093.91;;;-0.71;73.62
47883;BME280;37739;50.350;7.578;2023-01-29T04:22:49;101090.06;;;-0.76;74.21
47883;BME280;37739;50.350;7.578;2023-01-29T04:25:17;101089.78;;;-0.71;74.64
47883;BME280;37739;50.350;7.578;2023-01-29T04:33:25;101067.78;;;-0.47;74.36
47883;BME280;37739;50.350;7.578;2023-01-29T04:41:24;101054.03;;;-0.42;72.69
47883;BME280;37739;50.350;7.578;2023-01-29T04:44:12;101029.72;;;-0.42;72.49
47883;BME280;37739;50.350;7.578;2023-01-29T04:47:12;101031.47;;;-0.41;72.18
47883;BME280;37739;50.350;7.578;2023-01-29T04:55:08;101001.97;;;-0.42;72.13
47883;BME280;37739;50.350;7.578;2023-01-29T04:57:52;101011.00;;;-0.44;72.16
47883;BME280;37739;50.350;7.578;2023-01-29T05:00:25;101017.53;;;-0.46;72.25
47883;BME280;37739;50.350;7.578;2023-01-29T05:02:53;101025.81;;;-0.47;72.35
47883;BME280;37739;50.350;7.578;2023-01-29T05:05:19;101025.66;;;-0.48;72.54
47883;BME280;37739;50.350;7.578;2023-01-29T05:07:46;101023.31;;;-0.47;72.46
47883;BME280;37739;50.350;7.578;2023-01-29T05:10:13;101029.97;;;-0.47;72.44
47883;BME280;37739;50.350;7.578;2023-01-29T05:12:48;101034.31;;;-0.46;72.54
47883;BME280;37739;50.350;7.578;2023-01-29T05:15:19;101047.78;;;-0.46;72.58
47883;BME280;37739;50.350;7.578;2023-01-29T05:17:47;101050.00;;;-0.49;72.67
47883;BME280;37739;50.350;7.578;2023-01-29T05:20:12;101059.03;;;-0.51;72.37
47883;BME280;37739;50.350;7.578;2023-01-29T05:22:40;101065.44;;;-0.46;73.07
47883;BME280;37739;50.350;7.578;2023-01-29T05:25:26;101051.50;;;-0.42;72.88
47883;BME280;37739;50.350;7.578;2023-01-29T05:27:52;101054.31;;;-0.39;72.86
47883;BME280;37739;50.350;7.578;2023-01-29T05:30:40;101067.53;;;-0.42;72.98
47883;BME280;37739;50.350;7.578;2023-01-29T05:33:17;101054.16;;;-0.41;73.06
47883;BME280;37739;50.350;7.578;2023-01-29T05:35:50;101049.44;;;-0.37;72.95
47883;BME280;37739;50.350;7.578;2023-01-29T05:38:16;101048.84;;;-0.35;72.73
47883;BME280;37739;50.350;7.578;2023-01-29T05:40:42;101041.44;;;-0.33;72.24
47883;BME280;37739;50.350;7.578;2023-01-29T05:43:20;101038.75;;;-0.35;72.02
47883;BME280;37739;50.350;7.578;2023-01-29T05:45:57;101044.72;;;-0.34;71.24
47883;BME280;37739;50.350;7.578;2023-01-29T05:48:26;101049.00;;;-0.33;71.68
47883;BME280;37739;50.350;7.578;2023-01-29T05:51:02;101054.94;;;-0.33;71.48
47883;BME280;37739;50.350;7.578;2023-01-29T05:53:31;101050.91;;;-0.40;71.76
47883;BME280;37739;50.350;7.578;2023-01-29T05:56:00;101056.06;;;-0.47;72.16
47883;BME280;37739;50.350;7.578;2023-01-29T05:58:25;101061.44;;;-0.44;72.12
47883;BME280;37739;50.350;7.578;2023-01-29T06:00:51;101066.22;;;-0.38;71.67
47883;BME280;37739;50.350;7.578;2023-01-29T06:03:19;101047.81;;;-0.37;71.43
47883;BME280;37739;50.350;7.578;2023-01-29T06:05:44;101047.38;;;-0.33;71.37
47883;BME280;37739;50.350;7.578;2023-01-29T06:08:09;101042.47;;;-0.31;71.25
47883;BME280;37739;50.350;7.578;2023-01-29T06:10:37;101033.88;;;-0.33;71.06
47883;BME280;37739;50.350;7.578;2023-01-29T06:13:04;101021.09;;;-0.35;71.28
47883;BME280;37739;50.350;7.578;2023-01-29T06:15:31;101014.59;;;-0.33;71.08
47883;BME280;37739;50.350;7.578;2023-01-29T06:17:56;101018.75;;;-0.33;70.82
47883;BME280;37739;50.350;7.578;2023-01-29T06:20:24;101016.66;;;-0.37;71.04
47883;BME280;37739;50.350;7.578;2023-01-29T06:22:50;101006.56;;;-0.37;70.76
47883;BME280;37739;50.350;7.578;2023-01-29T06:25:17;101000.81;;;-0.36;70.86
47883;BME280;37739;50.350;7.578;2023-01-29T06:27:45;101009.25;;;-0.36;70.96
47883;BME280;37739;50.350;7.578;2023-01-29T06:30:16;101006.56;;;-0.37;71.08
47883;BME280;37739;50.350;7.578;2023-01-29T06:32:44;100996.50;;;-0.37;71.23
47883;BME280;37739;50.350;7.578;2023-01-29T06:35:09;101004.81;;;-0.38;71.59
47883;BME280;37739;50.350;7.578;2023-01-29T06:37:35;101004.06;;;-0.37;71.17
47883;BME280;37739;50.350;7.578;2023-01-29T06:40:01;101020.22;;;-0.35;71.53
47883;BME280;37739;50.350;7.578;2023-01-29T06:42:28;101033.22;;;-0.48;71.48
47883;BME280;37739;50.350;7.578;2023-01-29T06:44:59;101039.63;;;-0.43;71.50
47883;BME280;37739;50.350;7.578;2023-01-29T06:47:25;101048.25;;;-0.41;71.48
47883;BME280;37739;50.350;7.578;2023-01-29T06:49:51;101038.31;;;-0.40;71.35
47883;BME280;37739;50.350;7.578;2023-01-29T06:52:19;101034.00;;;-0.41;71.37
47883;BME280;37739;50.350;7.578;2023-01-29T06:54:44;101028.94;;;-0.41;71.30
47883;BME280;37739;50.350;7.578;2023-01-29T06:57:09;101028.38;;;-0.38;71.61
47883;BME280;37739;50.350;7.578;2023-01-29T06:59:34;101029.09;;;-0.39;71.54
47883;BME280;37739;50.350;7.578;2023-01-29T07:02:03;101050.31;;;-0.37;71.29
47883;BME280;37739;50.350;7.578;2023-01-29T07:04:30;101054.47;;;-0.37;70.91
47883;BME280;37739;50.350;7.578;2023-01-29T07:07:00;101048.41;;;-0.40;71.05
47883;BME280;37739;50.350;7.578;2023-01-29T07:09:26;101041.69;;;-0.48;71.13
47883;BME280;37739;50.350;7.578;2023-01-29T07:11:55;101047.19;;;-0.43;70.89
47883;BME280;37739;50.350;7.578;2023-01-29T07:14:21;101057.00;;;-0.46;70.80
47883;BME280;37739;50.350;7.578;2023-01-29T07:16:49;101055.81;;;-0.41;70.42
47883;BME280;37739;50.350;7.578;2023-01-29T07:19:14;101054.75;;;-0.43;70.77
47883;BME280;37739;50.350;7.578;2023-01-29T07:21:39;101046.59;;;-0.41;70.84
47883;BME280;37739;50.350;7.578;2023-01-29T07:24:05;101051.81;;;-0.39;70.17
47883;BME280;37739;50.350;7.578;2023-01-29T07:26:30;101061.00;;;-0.40;70.60
47883;BME280;37739;50.350;7.578;2023-01-29T07:28:56;101060.41;;;-0.46;70.02
47883;BME280;37739;50.350;7.578;2023-01-29T07:31:23;101055.50;;;-0.44;70.21
47883;BME280;37739;50.350;7.578;2023-01-29T07:33:48;101062.94;;;-0.37;70.37
47883;BME280;37739;50.350;7.578;2023-01-29T07:36:14;101066.81;;;-0.32;70.31
47883;BME280;37739;50.350;7.578;2023-01-29T07:38:39;101061.06;;;-0.31;70.41
47883;BME280;37739;50.350;7.578;2023-01-29T07:41:05;101075.00;;;-0.26;69.86
47883;BME280;37739;50.350;7.578;2023-01-29T07:43:30;101069.78;;;-0.27;69.93
47883;BME280;37739;50.350;7.578;2023-01-29T07:46:00;101068.75;;;-0.29;70.18
47883;BME280;37739;50.350;7.578;2023-01-29T07:48:25;101072.19;;;-0.29;70.26
47883;BME280;37739;50.350;7.578;2023-01-29T07:50:55;101067.44;;;-0.26;70.35
47883;BME280;37739;50.350;7.578;2023-01-29T07:53:20;101071.16;;;-0.22;69.78
47883;BME280;37739;50.350;7.578;2023-01-29T07:55:48;101066.44;;;-0.19;70.03
47883;BME280;37739;50.350;7.578;2023-01-29T07:58:13;101061.66;;;-0.16;70.02
47883;BME280;37739;50.350;7.578;2023-01-29T08:00:41;101064.94;;;-0.17;69.87
47883;BME280;37739;50.350;7.578;2023-01-29T08:03:13;101069.50;;;-0.22;69.83
47883;BME280;37739;50.350;7.578;2023-01-29T08:05:40;101080.34;;;-0.23;69.49
47883;BME280;37739;50.350;7.578;2023-01-29T08:08:08;101082.81;;;-0.31;70.47
47883;BME280;37739;50.350;7.578;2023-01-29T08:10:35;101088.03;;;-0.38;70.85
47883;BME280;37739;50.350;7.578;2023-01-29T08:13:07;101085.78;;;-0.35;70.79
47883;BME280;37739;50.350;7.578;2023-01-29T08:15:35;101084.13;;;-0.44;71.10
47883;BME280;37739;50.350;7.578;2023-01-29T08:18:00;101085.50;;;-0.30;70.91
47883;BME280;37739;50.350;7.578;2023-01-29T08:20:26;101091.66;;;-0.19;70.74
47883;BME280;37739;50.350;7.578;2023-01-29T08:23:02;101089.41;;;-0.16;69.69
47883;BME280;37739;50.350;7.578;2023-01-29T08:25:28;101089.56;;;-0.14;69.90
47883;BME280;37739;50.350;7.578;2023-01-29T08:27:58;101096.63;;;-0.36;70.11
47883;BME280;37739;50.350;7.578;2023-01-29T08:30:26;101085.38;;;-0.56;71.62
47883;BME280;37739;50.350;7.578;2023-01-29T08:32:51;101084.56;;;-0.39;71.25
47883;BME280;37739;50.350;7.578;2023-01-29T08:35:17;101079.09;;;-0.35;71.02
47883;BME280;37739;50.350;7.578;2023-01-29T08:37:42;101077.16;;;-0.46;71.03
47883;BME280;37739;50.350;7.578;2023-01-29T08:40:08;101074.47;;;-0.48;71.83
47883;BME280;37739;50.350;7.578;2023-01-29T08:42:35;101068.56;;;-0.40;71.58
47883;BME280;37739;50.350;7.578;2023-01-29T08:45:02;101083.47;;;-0.58;71.90
47883;BME280;37739;50.350;7.578;2023-01-29T08:47:30;101072.97;;;-0.79;72.97
47883;BME280;37739;50.350;7.578;2023-01-29T08:49:58;101081.69;;;-0.60;72.74
47883;BME280;37739;50.350;7.578;2023-01-29T08:52:23;101070.22;;;-0.40;72.15
47883;BME280;37739;50.350;7.578;2023-01-29T08:54:50;101074.09;;;-0.26;71.76
47883;BME280;37739;50.350;7.578;2023-01-29T08:57:18;101085.56;;;-0.21;71.43
47883;BME280;37739;50.350;7.578;2023-01-29T08:59:43;101096.75;;;-0.35;70.60
47883;BME280;37739;50.350;7.578;2023-01-29T09:02:10;101090.06;;;-0.43;71.38
47883;BME280;37739;50.350;7.578;2023-01-29T09:04:38;101082.56;;;-0.59;72.23
47883;BME280;37739;50.350;7.578;2023-01-29T09:07:03;101094.16;;;-0.52;72.11
47883;BME280;37739;50.350;7.578;2023-01-29T09:09:33;101082.59;;;-0.50;71.92
47883;BME280;37739;50.350;7.578;2023-01-29T09:11:58;101087.59;;;-0.34;71.96
47883;BME280;37739;50.350;7.578;2023-01-29T09:14:26;101090.31;;;-0.15;71.36
47883;BME280;37739;50.350;7.578;2023-01-29T09:16:51;101093.88;;;-0.13;70.98
47883;BME280;37739;50.350;7.578;2023-01-29T09:19:17;101100.69;;;-0.12;70.76
47883;BME280;37739;50.350;7.578;2023-01-29T09:21:44;101094.50;;;-0.07;70.37
47883;BME280;37739;50.350;7.578;2023-01-29T09:24:10;101093.13;;;-0.12;69.75
47883;BME280;37739;50.350;7.578;2023-01-29T09:26:37;101104.09;;;-0.21;70.22
47883;BME280;37739;50.350;7.578;2023-01-29T09:29:09;101108.72;;;-0.16;70.64
47883;BME280;37739;50.350;7.578;2023-01-29T09:31:37;101108.88;;;-0.06;70.72
47883;BME280;37739;50.350;7.578;2023-01-29T09:34:04;101114.19;;;-0.12;70.48
47883;BME280;37739;50.350;7.578;2023-01-29T09:36:32;101122.03;;;-0.17;71.12
47883;BME280;37739;50.350;7.578;2023-01-29T09:38:57;101115.41;;;-0.08;70.50
47883;BME280;37739;50.350;7.578;2023-01-29T09:44:19;101110.69;;;-0.05;70.03
47883;BME280;37739;50.350;7.578;2023-01-29T09:46:51;101113.91;;;-0.06;70.02
47883;BME280;37739;50.350;7.578;2023-01-29T09:49:29;101121.09;;;-0.35;70.58
47883;BME280;37739;50.350;7.578;2023-01-29T09:52:02;101123.53;;;-0.20;70.99
47883;BME280;37739;50.350;7.578;2023-01-29T09:56:56;101115.69;;;-0.14;69.74
47883;BME280;37739;50.350;7.578;2023-01-29T09:59:26;101096.16;;;0.01;70.49
47883;BME280;37739;50.350;7.578;2023-01-29T10:02:16;101091.72;;;0.25;69.44
47883;BME280;37739;50.350;7.578;2023-01-29T10:13:18;101057.44;;;0.44;68.07
47883;BME280;37739;50.350;7.578;2023-01-29T10:18:28;101046.59;;;0.54;67.46
47883;BME280;37739;50.350;7.578;2023-01-29T10:26:36;101042.59;;;0.73;67.46
47883;BME280;37739;50.350;7.578;2023-01-29T10:29:06;101046.59;;;0.80;67.01
47883;BME280;37739;50.350;7.578;2023-01-29T10:31:36;101034.25;;;0.83;67.43
47883;BME280;37739;50.350;7.578;2023-01-29T10:36:42;101021.44;;;0.90;66.30
47883;BME280;37739;50.350;7.578;2023-01-29T10:39:15;101017.16;;;0.89;66.28
47883;BME280;37739;50.350;7.578;2023-01-29T10:50:14;101008.03;;;1.09;66.21
47883;BME280;37739;50.350;7.578;2023-01-29T11:01:43;100989.59;;;1.10;65.37
47883;BME280;37739;50.350;7.578;2023-01-29T11:04:10;100985.13;;;1.16;65.09
47883;BME280;37739;50.350;7.578;2023-01-29T11:06:39;100970.50;;;1.22;65.73
47883;BME280;37739;50.350;7.578;2023-01-29T11:09:08;100969.16;;;1.26;65.07
47883;BME280;37739;50.350;7.578;2023-01-29T11:14:31;100954.88;;;1.26;64.79
47883;BME280;37739;50.350;7.578;2023-01-29T11:17:02;100955.03;;;1.19;64.58
47883;BME280;37739;50.350;7.578;2023-01-29T11:19:39;100957.94;;;1.05;64.60
47883;BME280;37739;50.350;7.578;2023-01-29T11:22:15;100945.78;;;1.01;65.96
47883;BME280;37739;50.350;7.578;2023-01-29T11:24:43;100939.16;;;1.20;66.11
47883;BME280;37739;50.350;7.578;2023-01-29T11:27:24;100938.25;;;1.47;64.54
47883;BME280;37739;50.350;7.578;2023-01-29T11:29:53;100941.97;;;1.51;64.91
47883;BME280;37739;50.350;7.578;2023-01-29T11:37:38;100935.72;;;1.47;64.53
47883;BME280;37739;50.350;7.578;2023-01-29T11:42:45;100928.53;;;1.52;64.84
47883;BME280;37739;50.350;7.578;2023-01-29T11:45:31;100924.94;;;1.59;63.79
47883;BME280;37739;50.350;7.578;2023-01-29T11:47:59;100920.25;;;1.72;63.98
47883;BME280;37739;50.350;7.578;2023-01-29T11:50:29;100918.13;;;1.76;63.34
47883;BME280;37739;50.350;7.578;2023-01-29T11:53:00;100924.25;;;1.51;63.06
47883;BME280;37739;50.350;7.578;2023-01-29T11:55:34;100919.13;;;1.60;64.15
47883;BME280;37739;50.350;7.578;2023-01-29T11:58:13;100914.03;;;1.68;63.97
47883;BME280;37739;50.350;7.578;2023-01-29T12:00:45;100906.44;;;1.68;63.52
47883;BME280;37739;50.350;7.578;2023-01-29T12:03:20;100909.59;;;1.66;62.85
47883;BME280;37739;50.350;7.578;2023-01-29T12:05:58;100892.28;;;1.70;63.61
47883;BME280;37739;50.350;7.578;2023-01-29T12:08:35;100891.94;;;1.76;64.29
47883;BME280;37739;50.350;7.578;2023-01-29T12:13:32;100882.50;;;1.65;64.16
47883;BME280;37739;50.350;7.578;2023-01-29T12:18:35;100879.13;;;1.93;63.56
47883;BME280;37739;50.350;7.578;2023-01-29T12:21:14;100888.91;;;1.99;63.08
47883;BME280;37739;50.350;7.578;2023-01-29T12:23:58;100866.28;;;2.01;63.50
47883;BME280;37739;50.350;7.578;2023-01-29T12:32:38;100836.44;;;2.46;62.30
47883;BME280;37739;50.350;7.578;2023-01-29T12:35:18;100821.88;;;2.44;62.79
47883;BME280;37739;50.350;7.578;2023-01-29T12:38:06;100820.53;;;2.58;61.33
47883;BME280;37739;50.350;7.578;2023-01-29T12:40:41;100814.72;;;2.59;61.04
47883;BME280;37739;50.350;7.578;2023-01-29T12:43:17;100813.06;;;2.59;62.22
47883;BME280;37739;50.350;7.578;2023-01-29T12:45:46;100820.56;;;2.88;61.60
47883;BME280;37739;50.350;7.578;2023-01-29T12:48:22;100813.38;;;2.93;60.70
47883;BME280;37739;50.350;7.578;2023-01-29T12:50:51;100812.72;;;2.85;60.76
47883;BME280;37739;50.350;7.578;2023-01-29T12:53:37;100808.78;;;2.68;61.22
47883;BME280;37739;50.350;7.578;2023-01-29T12:56:25;100809.31;;;2.95;60.53
47883;BME280;37739;50.350;7.578;2023-01-29T12:58:53;100796.13;;;3.09;61.11
47883;BME280;37739;50.350;7.578;2023-01-29T13:01:39;100787.88;;;3.02;59.26
47883;BME280;37739;50.350;7.578;2023-01-29T13:04:17;100790.44;;;2.91;60.64
47883;BME280;37739;50.350;7.578;2023-01-29T13:06:55;100792.81;;;2.90;60.72
47883;BME280;37739;50.350;7.578;2023-01-29T13:09:28;100790.66;;;2.84;61.27
47883;BME280;37739;50.350;7.578;2023-01-29T13:12:01;100790.06;;;2.97;61.39
47883;BME280;37739;50.350;7.578;2023-01-29T13:14:44;100791.06;;;3.09;60.04
47883;BME280;37739;50.350;7.578;2023-01-29T13:19:53;100785.31;;;3.32;60.45
47883;BME280;37739;50.350;7.578;2023-01-29T13:22:25;100780.25;;;3.32;59.47
47883;BME280;37739;50.350;7.578;2023-01-29T13:24:51;100781.69;;;3.08;60.11
47883;BME280;37739;50.350;7.578;2023-01-29T13:27:23;100778.50;;;2.80;61.42
47883;BME280;37739;50.350;7.578;2023-01-29T13:29:49;100779.53;;;2.82;61.08
47883;BME280;37739;50.350;7.578;2023-01-29T13:32:20;100773.56;;;2.71;60.23
47883;BME280;37739;50.350;7.578;2023-01-29T13:34:52;100773.31;;;2.68;61.33
47883;BME280;37739;50.350;7.578;2023-01-29T13:37:26;100770.13;;;2.61;61.60
47883;BME280;37739;50.350;7.578;2023-01-29T13:39:54;100769.53;;;2.73;61.04
47883;BME280;37739;50.350;7.578;2023-01-29T13:42:24;100766.63;;;2.79;60.59
47883;BME280;37739;50.350;7.578;2023-01-29T13:44:52;100764.59;;;2.85;61.38
47883;BME280;37739;50.350;7.578;2023-01-29T13:47:26;100762.16;;;2.77;60.97
47883;BME280;37739;50.350;7.578;2023-01-29T13:54:56;100756.59;;;2.91;60.52
47883;BME280;37739;50.350;7.578;2023-01-29T13:57:54;100749.22;;;2.94;60.83
47883;BME280;37739;50.350;7.578;2023-01-29T14:08:02;100734.78;;;2.72;60.77
47883;BME280;37739;50.350;7.578;2023-01-29T14:10:33;100730.59;;;2.73;61.20
47883;BME280;37739;50.350;7.578;2023-01-29T14:15:31;100710.97;;;2.70;61.17
47883;BME280;37739;50.350;7.578;2023-01-29T14:21:20;100706.16;;;2.63;60.93
47883;BME280;37739;50.350;7.578;2023-01-29T14:24:20;100710.47;;;2.64;61.19
47883;BME280;37739;50.350;7.578;2023-01-29T14:26:47;100709.47;;;2.62;61.08
47883;BME280;37739;50.350;7.578;2023-01-29T14:29:26;100707.66;;;2.61;60.84
47883;BME280;37739;50.350;7.578;2023-01-29T14:34:50;100702.59;;;2.61;61.31
47883;BME280;37739;50.350;7.578;2023-01-29T14:37:21;100699.94;;;2.60;61.34
47883;BME280;37739;50.350;7.578;2023-01-29T14:39:54;100699.06;;;2.59;61.86
47883;BME280;37739;50.350;7.578;2023-01-29T14:42:28;100695.38;;;2.55;61.44
47883;BME280;37739;50.350;7.578;2023-01-29T14:53:22;100685.13;;;2.44;61.76
47883;BME280;37739;50.350;7.578;2023-01-29T14:56:13;100682.81;;;2.36;61.82
47883;BME280;37739;50.350;7.578;2023-01-29T14:58:47;100681.31;;;2.39;61.95
47883;BME280;37739;50.350;7.578;2023-01-29T15:01:35;100669.41;;;2.38;61.27
47883;BME280;37739;50.350;7.578;2023-01-29T15:04:06;100676.88;;;2.36;61.50
47883;BME280;37739;50.350;7.578;2023-01-29T15:06:43;100681.94;;;2.36;61.11
47883;BME280;37739;50.350;7.578;2023-01-29T15:09:36;100674.97;;;2.23;60.88
47883;BME280;37739;50.350;7.578;2023-01-29T15:12:24;100671.69;;;2.24;61.64
47883;BME280;37739;50.350;7.578;2023-01-29T15:20:26;100662.56;;;2.26;60.83
47883;BME280;37739;50.350;7.578;2023-01-29T15:22:52;100661.06;;;2.18;60.70
47883;BME280;37739;50.350;7.578;2023-01-29T15:25:17;100661.28;;;2.21;60.93
47883;BME280;37739;50.350;7.578;2023-01-29T15:27:46;100652.06;;;2.22;60.62
47883;BME280;37739;50.350;7.578;2023-01-29T15:30:18;100659.66;;;2.22;61.02
47883;BME280;37739;50.350;7.578;2023-01-29T15:32:46;100657.75;;;2.19;60.70
47883;BME280;37739;50.350;7.578;2023-01-29T15:35:34;100650.50;;;2.13;60.78
47883;BME280;37739;50.350;7.578;2023-01-29T15:40:31;100652.16;;;2.13;61.30
47883;BME280;37739;50.350;7.578;2023-01-29T15:42:57;100656.22;;;2.11;61.75
47883;BME280;37739;50.350;7.578;2023-01-29T15:45:32;100664.59;;;2.10;60.80